New Hartford, Iowa
Current Conditions -  °F | °C
As of 4:54 PM on Tuesday 25 Nov 2014 (Local Time) from KALO Reporting Station
Clear Clear  
Wind Chill: 12°   Ceiling: Unl
Heat Index: 19°   Visibility: 10mi
Dew Point: 14°   Wind: 5mph
Humidity: 81%   Direction: 140°SE
Pressure: 30.08"   Gusts: NA
Location:  42.57°N, 92.62°W
Report Text: KALO 252254Z AUTO 14004KT 10SM CLR M07/M10 A3008 RMK AO2 SLP202 T10721100
Loading
Personal Weather Stations






























Interactive Weather Map New forecast layout! Learn more

10-Day Weather Forecast

Advertisements
Track Severe Weather on mobile